createdAt,value
2023-02-02T00:03:59.988Z,13.74
2023-02-02T00:09:03.436Z,13.73
2023-02-02T00:14:05.745Z,13.73
2023-02-02T00:19:15.566Z,13.73
2023-02-02T00:24:18.472Z,13.76
2023-02-02T00:29:23.322Z,13.76
2023-02-02T00:34:25.896Z,13.75
2023-02-02T00:39:28.216Z,13.74
2023-02-02T00:44:48.864Z,13.73
2023-02-02T00:49:51.038Z,13.72
2023-02-02T00:54:53.533Z,13.74
2023-02-02T00:59:55.888Z,13.75
2023-02-02T01:04:58.180Z,13.78
2023-02-02T01:10:00.433Z,13.78
2023-02-02T01:15:03.540Z,13.77
2023-02-02T01:20:09.276Z,13.74
2023-02-02T01:25:11.482Z,13.71
2023-02-02T01:30:14.131Z,13.72
2023-02-02T01:35:16.311Z,13.71
2023-02-02T01:40:18.652Z,13.76
2023-02-02T01:45:29.519Z,13.77
2023-02-02T01:50:34.654Z,13.77
2023-02-02T01:55:40.108Z,13.74
2023-02-02T02:00:46.153Z,13.75
2023-02-02T02:06:15.638Z,13.72
2023-02-02T02:11:18.572Z,13.76
2023-02-02T02:16:44.933Z,13.78
2023-02-02T02:22:25.569Z,13.78
2023-02-02T02:27:46.271Z,13.75
2023-02-02T02:33:00.091Z,13.76
2023-02-02T02:38:17.738Z,13.75
2023-02-02T02:43:55.823Z,13.74
2023-02-02T02:49:00.307Z,13.79
2023-02-02T02:54:03.283Z,13.81
2023-02-02T02:59:14.194Z,13.80
2023-02-02T03:04:38.262Z,13.76
2023-02-02T03:09:44.085Z,13.74
2023-02-02T03:14:46.245Z,13.74
2023-02-02T03:19:48.339Z,13.76
2023-02-02T03:24:50.494Z,13.81
2023-02-02T03:29:52.919Z,13.82
2023-02-02T03:34:55.007Z,13.81
2023-02-02T03:39:57.265Z,13.78
2023-02-02T03:44:59.524Z,13.76
2023-02-02T03:50:01.670Z,13.77
2023-02-02T03:55:04.146Z,13.77
2023-02-02T04:00:06.989Z,13.81
2023-02-02T04:05:14.165Z,13.83
2023-02-02T04:10:17.303Z,13.82
2023-02-02T04:15:19.470Z,13.82
2023-02-02T04:20:21.599Z,13.82
2023-02-02T04:25:24.067Z,13.81
2023-02-02T04:30:26.331Z,13.80
2023-02-02T04:35:28.523Z,13.81
2023-02-02T04:40:30.612Z,13.83
2023-02-02T04:45:33.103Z,13.84
2023-02-02T04:50:35.403Z,13.84
2023-02-02T04:55:39.099Z,13.82
2023-02-02T05:00:41.254Z,13.81
2023-02-02T05:05:43.406Z,13.78
2023-02-02T05:10:45.483Z,13.81
2023-02-02T05:15:48.450Z,13.84
2023-02-02T05:20:50.580Z,13.83
2023-02-02T05:25:54.742Z,13.83
2023-02-02T05:30:57.745Z,13.81
2023-02-02T05:36:00.018Z,13.80
2023-02-02T05:41:02.789Z,13.82
2023-02-02T05:46:05.382Z,13.82
2023-02-02T05:51:16.151Z,13.85
2023-02-02T05:56:18.398Z,13.87
2023-02-02T06:01:21.669Z,13.85
2023-02-02T06:06:24.000Z,13.83
2023-02-02T06:11:26.258Z,13.83
2023-02-02T06:16:28.471Z,13.83
2023-02-02T06:21:33.416Z,13.86
2023-02-02T06:26:35.820Z,13.86
2023-02-02T06:31:38.044Z,13.88
2023-02-02T06:36:40.411Z,13.87
2023-02-02T06:41:44.939Z,13.85
2023-02-02T06:46:47.703Z,13.85
2023-02-02T06:51:50.031Z,13.84
2023-02-02T06:56:52.181Z,13.88
2023-02-02T07:01:54.392Z,13.90
2023-02-02T07:06:56.555Z,13.91
2023-02-02T07:11:59.519Z,13.92
2023-02-02T07:17:01.899Z,13.89
2023-02-02T07:22:04.076Z,13.87
2023-02-02T07:27:06.354Z,13.85
2023-02-02T07:32:08.504Z,13.84
2023-02-02T07:37:11.069Z,13.87
2023-02-02T07:42:13.646Z,13.88
2023-02-02T07:47:17.477Z,13.89
2023-02-02T07:52:19.663Z,13.88
2023-02-02T07:57:21.868Z,13.88
2023-02-02T08:02:24.132Z,13.86
2023-02-02T08:07:26.413Z,13.85
2023-02-02T08:12:28.757Z,13.88
2023-02-02T08:17:30.950Z,13.87
2023-02-02T08:22:33.081Z,13.88
2023-02-02T08:27:36.964Z,13.80
2023-02-02T08:32:40.697Z,13.85
2023-02-02T08:37:42.908Z,13.88
2023-02-02T08:42:46.475Z,13.84
2023-02-02T08:47:52.041Z,13.85
2023-02-02T08:53:01.050Z,13.88
2023-02-02T08:58:03.225Z,13.91
2023-02-02T09:03:05.674Z,13.87
2023-02-02T09:08:07.850Z,13.87
2023-02-02T09:13:10.238Z,13.86
2023-02-02T09:18:12.385Z,13.88
2023-02-02T09:23:14.545Z,13.89
2023-02-02T09:28:16.954Z,13.89
2023-02-02T09:33:19.102Z,13.88
2023-02-02T09:38:21.231Z,13.85
2023-02-02T09:43:52.136Z,13.83
2023-02-02T09:49:09.970Z,13.83
2023-02-02T09:54:27.126Z,13.77
2023-02-02T09:59:37.656Z,13.87
2023-02-02T10:04:43.982Z,13.89
2023-02-02T10:10:02.813Z,13.88
2023-02-02T10:15:20.761Z,13.87
2023-02-02T10:20:59.331Z,13.84
2023-02-02T10:26:27.517Z,13.83
2023-02-02T10:31:43.664Z,13.83
2023-02-02T10:37:07.780Z,13.87
2023-02-02T10:42:21.695Z,13.87
2023-02-02T10:47:28.110Z,13.90
2023-02-02T10:52:33.811Z,13.86
2023-02-02T10:58:13.298Z,13.84
2023-02-02T11:03:17.858Z,13.84
2023-02-02T11:08:30.499Z,13.85
2023-02-02T11:13:38.124Z,13.88
2023-02-02T11:18:43.889Z,13.85
2023-02-02T11:23:55.941Z,13.83
2023-02-02T11:29:00.008Z,13.84
2023-02-02T11:34:28.275Z,13.82
2023-02-02T11:39:31.313Z,13.81
2023-02-02T11:44:36.026Z,13.84
2023-02-02T11:49:43.853Z,13.87
2023-02-02T11:54:58.847Z,13.83
2023-02-02T12:00:10.467Z,13.81
2023-02-02T12:05:13.552Z,13.82
2023-02-02T12:10:18.665Z,13.82
2023-02-02T12:15:30.568Z,13.81
2023-02-02T12:20:46.332Z,13.86
2023-02-02T12:26:16.118Z,13.85
2023-02-02T12:31:27.324Z,13.86
2023-02-02T12:36:40.451Z,13.83
2023-02-02T12:42:03.953Z,13.81
2023-02-02T12:47:35.927Z,13.80
2023-02-02T12:53:07.326Z,13.84
2023-02-02T12:58:24.362Z,13.87
2023-02-02T13:04:00.569Z,13.87
2023-02-02T13:09:10.189Z,13.84
2023-02-02T13:14:36.188Z,13.84
2023-02-02T13:19:49.106Z,13.84
2023-02-02T13:24:55.847Z,13.82
2023-02-02T13:30:05.757Z,13.84
2023-02-02T13:35:17.674Z,13.85
2023-02-02T13:40:32.885Z,13.87
2023-02-02T13:45:53.030Z,13.85
2023-02-02T13:51:36.394Z,13.81
2023-02-02T13:57:13.128Z,13.82
2023-02-02T14:02:52.320Z,13.81
2023-02-02T14:08:02.370Z,13.84
2023-02-02T14:13:32.131Z,13.85
2023-02-02T14:18:52.327Z,13.85
2023-02-02T14:23:55.778Z,13.84
2023-02-02T14:28:57.973Z,13.83
2023-02-02T14:34:30.539Z,13.81
2023-02-02T14:39:41.480Z,13.82
2023-02-02T14:45:08.073Z,13.85
2023-02-02T14:50:38.353Z,13.86
2023-02-02T14:56:01.036Z,13.84
2023-02-02T15:01:17.451Z,13.84
2023-02-02T15:06:43.433Z,13.82
2023-02-02T15:12:03.682Z,13.81
2023-02-02T15:17:17.723Z,13.83
2023-02-02T15:22:35.282Z,13.87
2023-02-02T15:27:51.514Z,13.85
2023-02-02T15:32:58.959Z,13.85
2023-02-02T15:38:06.230Z,13.84
2023-02-02T15:43:10.710Z,13.85
2023-02-02T15:48:31.924Z,13.84
2023-02-02T15:53:49.070Z,13.86
2023-02-02T15:58:54.025Z,13.88
2023-02-02T16:04:08.566Z,13.89
2023-02-02T16:09:19.629Z,13.87
2023-02-02T16:14:22.270Z,13.87
2023-02-02T16:19:26.974Z,13.86
2023-02-02T16:24:33.375Z,13.85
2023-02-02T16:29:35.921Z,13.86
2023-02-02T16:34:41.060Z,13.89
2023-02-02T16:39:43.770Z,13.92
2023-02-02T16:44:45.874Z,13.88
2023-02-02T16:49:48.058Z,13.87
2023-02-02T16:54:53.850Z,13.84
2023-02-02T16:59:59.975Z,13.86
2023-02-02T17:05:30.272Z,13.87
2023-02-02T17:10:37.828Z,13.91
2023-02-02T17:15:39.959Z,13.90
2023-02-02T17:20:42.629Z,13.88
2023-02-02T17:25:45.380Z,13.87
2023-02-02T17:30:50.587Z,13.86
2023-02-02T17:35:56.567Z,13.87
2023-02-02T17:41:02.060Z,13.91
2023-02-02T17:46:04.449Z,13.95
2023-02-02T17:51:13.606Z,13.94
2023-02-02T17:56:15.877Z,13.94
2023-02-02T18:01:18.117Z,13.92
2023-02-02T18:06:20.303Z,13.91
2023-02-02T18:11:22.388Z,13.89
2023-02-02T18:16:24.616Z,13.93
2023-02-02T18:21:26.916Z,13.96
2023-02-02T18:26:29.127Z,13.95
2023-02-02T18:31:31.518Z,13.93
2023-02-02T18:36:34.258Z,13.94
2023-02-02T18:41:36.467Z,13.93
2023-02-02T18:46:38.635Z,13.91
2023-02-02T18:51:42.041Z,13.95
2023-02-02T18:56:44.245Z,13.96
2023-02-02T19:01:46.363Z,14.00
2023-02-02T19:07:07.203Z,13.97
2023-02-02T19:12:14.255Z,13.95
2023-02-02T19:17:28.270Z,13.92
2023-02-02T19:22:32.650Z,13.91
2023-02-02T19:27:36.439Z,13.92
2023-02-02T19:32:38.654Z,13.96
2023-02-02T19:37:43.400Z,13.96
2023-02-02T19:43:06.656Z,13.95
2023-02-02T19:48:26.587Z,13.93
2023-02-02T19:53:38.156Z,13.90
2023-02-02T19:58:40.355Z,13.90
2023-02-02T20:03:45.643Z,13.90
2023-02-02T20:08:47.972Z,13.93
2023-02-02T20:13:51.841Z,13.95
2023-02-02T20:18:57.267Z,13.93
2023-02-02T20:23:59.678Z,13.90
2023-02-02T20:29:25.359Z,13.88
2023-02-02T20:34:31.364Z,13.89
2023-02-02T20:39:42.046Z,13.91
2023-02-02T20:44:44.259Z,13.94
2023-02-02T20:49:46.904Z,13.93
2023-02-02T20:54:49.617Z,13.91
2023-02-02T20:59:57.753Z,13.90
2023-02-02T21:05:01.580Z,13.89
2023-02-02T21:10:03.913Z,13.91
2023-02-02T21:15:06.633Z,13.93
2023-02-02T21:20:10.314Z,13.94
2023-02-02T21:25:12.746Z,13.94
2023-02-02T21:30:15.314Z,13.92
2023-02-02T21:35:17.808Z,13.92
2023-02-02T21:40:25.800Z,13.89
2023-02-02T21:45:38.702Z,13.91
2023-02-02T21:50:41.870Z,13.94
2023-02-02T21:55:45.353Z,13.96
2023-02-02T22:00:49.608Z,13.94
2023-02-02T22:05:51.848Z,13.94
2023-02-02T22:10:53.953Z,13.92
2023-02-02T22:15:56.265Z,13.91
2023-02-02T22:20:59.624Z,13.90
2023-02-02T22:26:01.708Z,13.90
2023-02-02T22:31:05.235Z,13.93
2023-02-02T22:36:08.007Z,13.94
2023-02-02T22:41:10.247Z,13.94
2023-02-02T22:46:12.417Z,13.91
2023-02-02T22:51:14.574Z,13.91
2023-02-02T22:56:16.706Z,13.89
2023-02-02T23:01:18.861Z,13.90
2023-02-02T23:06:21.023Z,13.91
2023-02-02T23:11:23.219Z,13.94
2023-02-02T23:16:25.405Z,13.93
2023-02-02T23:21:27.595Z,13.91
2023-02-02T23:26:29.823Z,13.89
2023-02-02T23:31:32.095Z,13.89
2023-02-02T23:36:34.353Z,13.91
2023-02-02T23:41:36.415Z,13.93
2023-02-02T23:46:39.925Z,13.94
2023-02-02T23:51:42.197Z,13.92
2023-02-02T23:56:44.704Z,13.92
